Time;durP1;ratioP1;P1;durP2;ratioP2;P2;SDS_P1;SDS_P2;PMS_P1;PMS_P2;Temp;Humidity;BMP_temperature;BMP_pressure;BME280_temperature;BME280_humidity;BME280_pressure;Samples;Min_cycle;Max_cycle;Signal;HPM_P1;HPM_P2
2022/06/21 00:00:38;;;;;;;12.38;5.22;;;;;;;15.61;53.66;101824.31;5242661;28;20543;-37
2022/06/21 00:03:13;;;;;;;12.75;5.32;;;;;;;15.57;53.70;101829.09;5234858;28;20803;-39
2022/06/21 00:05:49;;;;;;;14.98;6.30;;;;;;;15.52;53.79;101831.41;5231202;28;20900;-38
2022/06/21 00:08:27;;;;;;;15.40;5.30;;;;;;;15.54;53.90;101842.72;5219653;28;20959;-40
2022/06/21 00:11:01;;;;;;;12.88;5.53;;;;;;;15.54;53.86;101839.22;5214235;28;20413;-38
2022/06/21 00:13:35;;;;;;;16.33;7.25;;;;;;;15.43;53.96;101821.69;5218810;28;20828;-38
2022/06/21 00:16:13;;;;;;;15.67;6.40;;;;;;;15.44;54.01;101842.00;5223870;28;20502;-37
2022/06/21 00:18:48;;;;;;;14.00;5.72;;;;;;;15.42;54.19;101830.66;5223766;28;20483;-39
2022/06/21 00:21:27;;;;;;;18.30;7.13;;;;;;;14.75;54.11;101732.78;5221060;28;20693;-38
2022/06/21 00:24:00;;;;;;;19.45;7.05;;;;;;;15.23;54.35;101805.94;5216204;28;20421;-38
2022/06/21 00:26:32;;;;;;;19.73;6.93;;;;;;;15.30;54.32;101815.94;5217344;28;20415;-38
2022/06/21 00:29:05;;;;;;;16.92;6.85;;;;;;;15.25;54.48;101823.59;5217405;28;20495;-39
2022/06/21 00:31:40;;;;;;;12.65;5.88;;;;;;;15.23;54.44;101816.56;5218287;28;20423;-37
2022/06/21 00:34:17;;;;;;;11.10;5.88;;;;;;;15.19;54.63;101815.22;5217157;28;20485;-37
2022/06/21 00:36:52;;;;;;;15.57;6.75;;;;;;;15.16;54.81;101817.38;5217704;28;20431;-38
2022/06/21 00:39:24;;;;;;;18.60;6.90;;;;;;;15.14;54.80;101819.34;5214959;28;20407;-37
2022/06/21 00:42:04;;;;;;;16.63;6.38;;;;;;;15.05;54.89;101796.31;5206534;28;20907;-37
2022/06/21 00:44:42;;;;;;;22.97;6.93;;;;;;;15.06;54.97;101809.50;5211852;28;20820;-38
2022/06/21 00:47:18;;;;;;;21.00;7.50;;;;;;;15.00;55.04;101810.09;5212789;28;20744;-39
2022/06/21 00:49:55;;;;;;;20.95;6.55;;;;;;;14.97;55.23;101805.09;5213172;28;22879;-37
2022/06/21 00:52:39;;;;;;;14.25;6.32;;;;;;;14.96;55.34;101808.75;5215673;28;20895;-37
2022/06/21 00:55:19;;;;;;;15.30;7.13;;;;;;;14.88;55.28;101798.03;5219792;28;20510;-36
2022/06/21 00:57:56;;;;;;;18.50;8.85;;;;;;;14.87;55.59;101799.03;5219928;28;20483;-37
2022/06/21 01:00:34;;;;;;;16.70;7.35;;;;;;;14.84;55.73;101810.00;5224591;28;20418;-37
2022/06/21 01:03:14;;;;;;;17.90;7.22;;;;;;;14.78;55.60;101800.78;5214575;28;20518;-38
2022/06/21 01:05:48;;;;;;;14.80;7.75;;;;;;;14.77;55.78;101796.44;5225206;28;20439;-38
2022/06/21 01:08:25;;;;;;;18.08;7.10;;;;;;;14.73;55.77;101793.25;5243428;28;23544;-38
2022/06/21 01:11:05;;;;;;;17.67;7.05;;;;;;;14.68;55.77;101792.91;5244667;28;20947;-38
2022/06/21 01:13:41;;;;;;;14.57;6.75;;;;;;;14.67;55.90;101788.56;5235602;28;20408;-38
2022/06/21 01:16:15;;;;;;;21.17;7.87;;;;;;;14.61;55.95;101785.69;5244403;28;20613;-38
2022/06/21 01:18:48;;;;;;;15.35;7.68;;;;;;;14.50;56.06;101778.75;5239582;28;20493;-37
2022/06/21 01:21:23;;;;;;;18.85;7.35;;;;;;;14.57;56.25;101781.66;5238012;28;20392;-38
2022/06/21 01:24:11;;;;;;;18.50;7.80;;;;;;;14.44;56.53;101768.75;5243636;28;20509;-38
2022/06/21 01:26:49;;;;;;;18.80;8.25;;;;;;;14.42;56.67;101773.34;5242423;28;20422;-37
2022/06/21 01:29:26;;;;;;;16.10;7.68;;;;;;;14.21;56.89;101744.41;5236670;28;20502;-38
2022/06/21 01:32:03;;;;;;;20.88;8.30;;;;;;;14.32;56.94;101764.63;5233479;28;20866;-37
2022/06/21 01:34:36;;;;;;;20.95;8.00;;;;;;;14.32;56.93;101769.94;5235174;28;20616;-38
2022/06/21 01:37:14;;;;;;;14.50;7.00;;;;;;;14.21;56.98;101750.56;5243050;28;20916;-37
2022/06/21 01:39:52;;;;;;;14.63;6.82;;;;;;;14.33;57.01;101763.63;5247456;28;20433;-37
2022/06/21 01:42:31;;;;;;;16.33;8.03;;;;;;;14.33;57.05;101768.94;5247175;28;20406;-37
2022/06/21 01:45:09;;;;;;;18.47;7.20;;;;;;;14.32;57.25;101761.97;5242019;28;20448;-38
2022/06/21 01:47:49;;;;;;;17.90;8.52;;;;;;;14.16;57.23;101739.56;5241523;28;20992;-38
2022/06/21 01:50:23;;;;;;;16.80;7.53;;;;;;;14.30;57.31;101765.59;5240298;28;20972;-38
2022/06/21 01:52:56;;;;;;;19.58;7.90;;;;;;;14.29;57.26;101760.44;5239937;28;20403;-37
2022/06/21 01:55:37;;;;;;;17.98;7.70;;;;;;;14.23;57.40;101759.22;5232657;28;20429;-38
2022/06/21 01:58:18;;;;;;;15.98;7.95;;;;;;;14.24;57.55;101763.56;5233041;28;20592;-38
2022/06/21 02:00:57;;;;;;;17.95;7.55;;;;;;;14.19;57.51;101757.88;5240751;28;21945;-37
2022/06/21 02:03:34;;;;;;;16.73;7.63;;;;;;;14.16;57.75;101747.53;5237223;28;20424;-38
2022/06/21 02:06:13;;;;;;;17.70;7.65;;;;;;;14.17;57.61;101759.84;5237128;28;20825;-37
2022/06/21 02:08:49;;;;;;;15.93;7.32;;;;;;;13.83;57.77;101746.34;5235037;28;20412;-43
2022/06/21 02:11:26;;;;;;;18.98;7.85;;;;;;;13.92;57.79;101728.69;5236141;28;20490;-37
2022/06/21 02:16:55;;;;;;;16.02;7.65;;;;;;;14.07;58.01;101749.28;5240376;28;20399;-37
2022/06/21 02:19:35;;;;;;;13.77;7.57;;;;;;;14.05;58.20;101751.25;5236487;28;20425;-37
2022/06/21 02:22:15;;;;;;;25.00;7.60;;;;;;;13.96;58.19;101753.97;5234721;28;20417;-38
2022/06/21 02:24:48;;;;;;;15.82;7.30;;;;;;;14.01;58.25;101770.28;5237672;28;20530;-39
2022/06/21 02:27:26;;;;;;;12.98;7.18;;;;;;;13.98;58.24;101766.13;5243536;28;20407;-38
2022/06/21 02:30:03;;;;;;;16.65;7.65;;;;;;;13.96;58.26;101767.25;5244042;28;20406;-37
2022/06/21 02:32:39;;;;;;;16.10;7.27;;;;;;;13.66;58.29;101717.94;5239209;28;20527;-38
2022/06/21 02:35:22;;;;;;;18.92;8.27;;;;;;;13.84;58.31;101759.50;5237999;28;20421;-39
2022/06/21 02:37:58;;;;;;;17.80;7.88;;;;;;;13.84;58.38;101775.44;5240206;28;20800;-38
2022/06/21 02:40:40;;;;;;;20.67;8.82;;;;;;;13.18;58.28;101671.25;5237325;28;20432;-36
2022/06/21 02:43:19;;;;;;;24.48;8.93;;;;;;;13.74;58.44;101768.50;5238452;28;20419;-38
2022/06/21 02:46:00;;;;;;;16.77;9.63;;;;;;;13.77;58.88;101778.81;5240263;28;20447;-38
2022/06/21 02:48:36;;;;;;;17.52;9.50;;;;;;;13.71;58.59;101769.63;5241225;28;20893;-37
2022/06/21 02:51:14;;;;;;;18.20;8.38;;;;;;;13.70;58.53;101757.34;5238043;28;20570;-38
2022/06/21 02:53:57;;;;;;;19.35;8.88;;;;;;;13.64;58.69;101747.31;5234725;28;20513;-38
2022/06/21 02:56:41;;;;;;;21.60;8.43;;;;;;;13.56;58.65;101733.91;5239352;28;20429;-39
2022/06/21 02:59:14;;;;;;;17.42;7.72;;;;;;;13.52;58.74;101749.31;5239161;28;20401;-37
2022/06/21 03:01:56;;;;;;;20.00;7.65;;;;;;;13.67;58.81;101740.88;5240117;28;20406;-38
2022/06/21 03:04:39;;;;;;;17.67;8.05;;;;;;;13.64;58.84;101741.16;5237628;28;20741;-38
2022/06/21 03:07:17;;;;;;;19.17;8.40;;;;;;;13.54;58.76;101727.94;5221063;28;20421;-37
2022/06/21 03:09:49;;;;;;;17.27;8.40;;;;;;;13.60;58.98;101740.63;5222837;28;20426;-42
2022/06/21 03:12:25;;;;;;;15.95;8.23;;;;;;;13.42;58.88;101699.94;5219025;28;20405;-38
2022/06/21 03:15:06;;;;;;;20.33;8.53;;;;;;;12.86;58.77;101609.69;5217455;28;20508;-37
2022/06/21 03:17:47;;;;;;;20.73;9.07;;;;;;;13.49;58.81;101727.53;5204600;28;20492;-38
2022/06/21 03:20:21;;;;;;;16.73;7.60;;;;;;;13.54;59.04;101733.25;5221780;28;20462;-37
2022/06/21 03:22:56;;;;;;;14.23;7.53;;;;;;;13.53;59.07;101720.94;5224335;28;20408;-38
2022/06/21 03:25:36;;;;;;;16.27;7.57;;;;;;;13.51;59.08;101714.97;5215561;28;20430;-37
2022/06/21 03:28:31;;;;;;;18.95;8.55;;;;;;;13.49;59.17;101711.63;5215135;28;20409;-37
2022/06/21 03:31:10;;;;;;;19.08;8.10;;;;;;;13.49;59.15;101712.44;5218606;28;20953;-37
2022/06/21 03:33:47;;;;;;;16.08;8.05;;;;;;;13.45;59.20;101704.94;5218166;28;20663;-37
2022/06/21 03:36:24;;;;;;;20.50;7.85;;;;;;;13.48;59.23;101715.28;5220901;28;20494;-40
2022/06/21 03:39:04;;;;;;;18.38;8.20;;;;;;;13.25;59.38;101683.78;5226318;28;20910;-38
2022/06/21 03:41:44;;;;;;;16.52;7.68;;;;;;;13.46;59.46;101709.25;5214089;28;20441;-38
2022/06/21 03:44:23;;;;;;;19.02;7.68;;;;;;;13.43;59.59;101707.72;5218723;28;20431;-38
2022/06/21 03:47:01;;;;;;;14.55;7.65;;;;;;;13.26;59.44;101674.88;5216791;28;20414;-38
2022/06/21 03:49:41;;;;;;;15.48;8.38;;;;;;;13.44;59.59;101692.63;5216459;28;20412;-37
2022/06/21 03:52:41;;;;;;;19.02;8.35;;;;;;;13.44;59.74;101696.16;5222349;28;20408;-39
2022/06/21 03:55:29;;;;;;;16.00;7.90;;;;;;;13.46;59.64;101703.94;5209712;28;20483;-37
2022/06/21 03:58:09;;;;;;;15.82;8.35;;;;;;;13.49;59.79;101714.28;5212739;28;20777;-37
2022/06/21 04:00:49;;;;;;;19.60;9.43;;;;;;;13.51;59.81;101709.66;5218139;28;20424;-38
2022/06/21 04:03:26;;;;;;;15.98;8.40;;;;;;;13.15;59.90;101640.53;5211449;28;20455;-36
2022/06/21 04:06:07;;;;;;;19.38;8.98;;;;;;;13.55;59.88;101700.41;5221896;28;20427;-37
2022/06/21 04:08:44;;;;;;;21.25;8.93;;;;;;;13.42;59.92;101668.09;5216981;28;20431;-38
2022/06/21 04:11:23;;;;;;;16.17;7.78;;;;;;;13.53;59.81;101686.44;5220387;28;20419;-37
2022/06/21 04:13:59;;;;;;;16.45;8.18;;;;;;;13.59;60.00;101697.34;5221714;28;20403;-36
2022/06/21 04:16:37;;;;;;;18.33;7.47;;;;;;;13.61;60.11;101710.44;5211755;28;20417;-36
2022/06/21 04:19:22;;;;;;;20.40;8.07;;;;;;;13.64;60.07;101707.50;5217213;28;20430;-38
2022/06/21 04:22:03;;;;;;;15.57;7.97;;;;;;;13.66;60.16;101705.53;5221682;28;20533;-37
2022/06/21 04:24:44;;;;;;;14.35;7.40;;;;;;;13.68;60.17;101684.13;5213819;28;20417;-39
2022/06/21 04:27:22;;;;;;;18.60;8.35;;;;;;;13.72;60.18;101675.72;5218729;28;21057;-37
2022/06/21 04:30:00;;;;;;;22.02;8.38;;;;;;;13.69;60.18;101675.16;5217852;28;21109;-38
2022/06/21 04:32:38;;;;;;;16.45;7.88;;;;;;;13.81;60.20;101685.47;5216225;28;20415;-35
2022/06/21 04:35:17;;;;;;;19.30;8.43;;;;;;;13.81;60.25;101679.28;5223853;28;20401;-37
2022/06/21 04:37:54;;;;;;;13.85;8.27;;;;;;;13.94;60.22;101695.69;5220615;28;20409;-37
2022/06/21 04:40:30;;;;;;;16.92;9.15;;;;;;;14.00;60.28;101691.63;5213310;28;20459;-37
2022/06/21 04:43:09;;;;;;;17.55;8.75;;;;;;;14.03;60.32;101686.00;5214343;28;20428;-36
2022/06/21 04:46:03;;;;;;;18.43;9.17;;;;;;;14.08;60.38;101691.66;5215310;28;20504;-36
2022/06/21 04:48:43;;;;;;;14.32;8.40;;;;;;;14.12;60.39;101668.28;5220295;28;20492;-36
2022/06/21 04:51:24;;;;;;;17.52;8.80;;;;;;;14.25;60.35;101677.56;5209432;28;20427;-37
2022/06/21 04:54:02;;;;;;;13.88;7.50;;;;;;;14.28;60.32;101676.44;5213892;28;20411;-37
2022/06/21 04:56:45;;;;;;;19.23;6.82;;;;;;;14.28;60.47;101684.41;5227943;28;20465;-37
2022/06/21 04:59:27;;;;;;;23.30;7.97;;;;;;;14.36;60.43;101688.94;5225820;28;20443;-37
2022/06/21 05:02:00;;;;;;;18.33;6.60;;;;;;;14.46;60.56;101685.22;5228175;28;20490;-37
2022/06/21 05:04:36;;;;;;;11.27;5.93;;;;;;;14.58;60.46;101690.28;5225994;28;20432;-36
2022/06/21 05:07:15;;;;;;;12.93;5.20;;;;;;;15.44;59.54;101682.28;5218515;28;20414;-37
2022/06/21 05:09:50;;;;;;;8.05;4.15;;;;;;;17.19;57.99;101687.34;5202434;28;20490;-37
2022/06/21 05:12:28;;;;;;;13.93;3.80;;;;;;;19.13;56.21;101682.53;5201159;28;20400;-39
2022/06/21 05:15:06;;;;;;;16.30;3.75;;;;;;;20.99;54.64;101668.25;5211263;28;20470;-39
2022/06/21 05:17:45;;;;;;;10.93;3.85;;;;;;;22.54;53.13;101661.19;5214328;28;20408;-38
2022/06/21 05:20:22;;;;;;;9.20;2.90;;;;;;;23.60;51.82;101660.03;5230993;28;20438;-39
2022/06/21 05:22:58;;;;;;;11.25;2.40;;;;;;;24.59;50.47;101653.94;5230676;28;20531;-38
2022/06/21 05:25:35;;;;;;;10.73;2.63;;;;;;;25.53;48.59;101623.91;5222471;28;20570;-39
2022/06/21 05:28:48;;;;;;;10.75;2.33;;;;;;;26.83;46.81;101649.25;5224461;28;20503;-38
2022/06/21 05:31:25;;;;;;;7.63;1.88;;;;;;;27.45;45.22;101643.22;5226078;28;22086;-39
2022/06/21 05:34:02;;;;;;;8.30;2.45;;;;;;;27.82;44.46;101659.91;5227265;28;20510;-39
2022/06/21 05:36:39;;;;;;;7.22;2.00;;;;;;;28.07;43.55;101656.78;5224456;28;20403;-39
2022/06/21 05:39:20;;;;;;;7.43;2.13;;;;;;;28.47;42.71;101672.94;5222878;28;20839;-40
2022/06/21 05:41:57;;;;;;;6.07;1.83;;;;;;;29.12;41.50;101673.28;5215376;28;20412;-40
2022/06/21 05:44:36;;;;;;;7.80;1.90;;;;;;;29.55;40.80;101657.97;5225240;28;20431;-40
2022/06/21 05:47:16;;;;;;;7.13;2.08;;;;;;;30.20;39.54;101637.06;5228724;28;20476;-40
2022/06/21 05:49:49;;;;;;;9.40;2.05;;;;;;;30.91;38.60;101661.19;5219360;28;20408;-42
2022/06/21 05:52:27;;;;;;;5.35;2.03;;;;;;;31.65;37.39;101660.88;5231657;28;20499;-41
2022/06/21 05:55:06;;;;;;;6.60;1.85;;;;;;;32.31;36.39;101667.44;5221299;28;20479;-41
2022/06/21 05:57:45;;;;;;;7.60;2.00;;;;;;;32.80;35.77;101669.53;5220661;28;20487;-41
2022/06/21 06:00:32;;;;;;;5.70;1.73;;;;;;;33.26;35.15;101666.59;5222386;28;20435;-40
2022/06/21 06:03:12;;;;;;;7.20;2.10;;;;;;;33.68;34.29;101678.97;5226603;28;20492;-41
2022/06/21 06:05:45;;;;;;;12.40;2.05;;;;;;;34.30;33.57;101660.91;5233185;28;20831;-41
2022/06/21 06:08:23;;;;;;;7.80;2.03;;;;;;;34.71;32.64;101684.34;5251351;28;20409;-41
2022/06/21 06:10:57;;;;;;;8.60;2.00;;;;;;;34.87;32.12;101681.16;5252583;28;20817;-47
2022/06/21 06:13:37;;;;;;;7.82;1.98;;;;;;;35.04;31.89;101677.13;5251980;28;20421;-40
2022/06/21 06:16:29;;;;;;;6.20;1.85;;;;;;;35.48;31.33;101686.94;5232779;28;20412;-43
2022/06/21 06:19:06;;;;;;;4.70;1.58;;;;;;;35.84;30.50;101680.91;5234514;28;20399;-40
2022/06/21 06:21:44;;;;;;;8.93;1.95;;;;;;;35.68;30.71;101686.66;5249969;28;20413;-41
2022/06/21 06:24:28;;;;;;;5.40;1.75;;;;;;;35.31;30.61;101674.53;5246084;28;21108;-41
2022/06/21 06:27:03;;;;;;;5.63;1.85;;;;;;;34.89;30.79;101684.41;5249462;28;20442;-42
2022/06/21 06:29:43;;;;;;;6.22;1.70;;;;;;;34.70;30.66;101683.53;5236028;28;20428;-41
2022/06/21 06:32:23;;;;;;;9.20;2.50;;;;;;;34.70;30.47;101686.28;5249638;28;20406;-41
2022/06/21 06:34:56;;;;;;;7.18;2.00;;;;;;;35.25;29.87;101689.47;5252427;28;20497;-42
2022/06/21 06:37:36;;;;;;;8.90;1.60;;;;;;;35.75;29.51;101680.78;5253077;28;20437;-42
2022/06/21 06:40:20;;;;;;;7.07;1.80;;;;;;;36.12;28.88;101690.91;5246769;28;20774;-42
2022/06/21 06:43:00;;;;;;;6.78;1.70;;;;;;;36.23;28.55;101692.31;5238231;28;20402;-42
2022/06/21 06:45:38;;;;;;;6.15;1.90;;;;;;;36.00;28.46;101693.28;5240025;28;20410;-43
2022/06/21 06:48:19;;;;;;;5.13;1.98;;;;;;;35.11;28.96;101689.34;5239026;28;20436;-40
2022/06/21 06:50:59;;;;;;;11.27;2.90;;;;;;;34.77;29.34;101697.72;5241345;28;20408;-42
2022/06/21 06:53:40;;;;;;;9.02;2.30;;;;;;;34.88;29.17;101701.97;5239007;28;20512;-40
2022/06/21 06:56:22;;;;;;;10.80;2.70;;;;;;;35.01;28.88;101700.44;5240422;28;20577;-42
2022/06/21 06:58:59;;;;;;;9.30;2.42;;;;;;;35.09;28.52;101702.59;5232340;28;20498;-41
2022/06/21 07:01:45;;;;;;;14.02;3.13;;;;;;;35.26;28.22;101704.00;5234858;28;20400;-42
2022/06/21 07:04:20;;;;;;;8.77;2.20;;;;;;;35.24;28.29;101711.72;5239526;28;20832;-44
2022/06/21 07:06:58;;;;;;;11.48;2.38;;;;;;;35.32;28.33;101714.63;5241768;28;20417;-44
2022/06/21 07:09:35;;;;;;;9.32;2.38;;;;;;;35.87;28.13;101716.84;5239429;28;20508;-41
2022/06/21 07:12:15;;;;;;;6.70;1.75;;;;;;;36.43;27.46;101709.59;5237058;28;20407;-42
2022/06/21 07:14:51;;;;;;;12.60;2.33;;;;;;;36.81;26.93;101712.19;5241841;28;20520;-42
2022/06/21 07:17:32;;;;;;;9.32;2.17;;;;;;;36.83;26.93;101715.47;5243688;28;20485;-41
2022/06/21 07:20:13;;;;;;;7.77;2.27;;;;;;;36.77;27.03;101714.75;5234927;28;20841;-43
2022/06/21 07:22:46;;;;;;;8.40;2.28;;;;;;;36.37;27.18;101717.13;5237716;28;20430;-41
2022/06/21 07:25:27;;;;;;;13.07;2.43;;;;;;;36.13;27.44;101711.75;5232507;28;20511;-43
2022/06/21 07:28:05;;;;;;;6.20;2.30;;;;;;;36.21;27.42;101716.59;5246410;28;20418;-41
2022/06/21 07:30:43;;;;;;;7.97;2.35;;;;;;;36.04;27.50;101718.25;5242031;28;20408;-42
2022/06/21 07:33:24;;;;;;;8.10;2.33;;;;;;;35.90;27.64;101724.50;5234372;28;20812;-40
2022/06/21 07:36:02;;;;;;;11.00;2.47;;;;;;;35.32;28.00;101722.84;5226259;28;20432;-41
2022/06/21 07:38:39;;;;;;;10.27;2.38;;;;;;;34.99;28.38;101715.56;5228622;28;20418;-42
2022/06/21 07:41:16;;;;;;;7.95;2.20;;;;;;;34.77;28.39;101711.44;5232654;28;20470;-41
2022/06/21 07:43:51;;;;;;;11.50;2.78;;;;;;;34.89;28.41;101719.25;5239865;28;20421;-41
2022/06/21 07:46:29;;;;;;;11.40;2.28;;;;;;;34.86;28.13;101704.19;5235713;28;20410;-41
2022/06/21 07:49:14;;;;;;;11.43;2.50;;;;;;;35.13;28.21;101708.28;5237363;28;20405;-41
2022/06/21 07:51:50;;;;;;;6.60;2.08;;;;;;;35.16;27.91;101706.91;5240820;28;20414;-41
2022/06/21 07:54:28;;;;;;;7.60;2.40;;;;;;;34.52;28.46;101712.50;5234979;28;20431;-41
2022/06/21 07:57:07;;;;;;;8.30;2.28;;;;;;;34.20;28.67;101719.41;5236199;28;20418;-43
2022/06/21 07:59:44;;;;;;;7.50;2.05;;;;;;;34.15;28.93;101715.88;5226429;28;20816;-41
2022/06/21 08:08:16;;;;;;;9.45;2.40;;;;;;;33.76;28.65;101705.75;5235464;28;20476;-39
2022/06/21 08:10:53;;;;;;;10.32;2.13;;;;;;;33.91;28.44;101716.63;5234751;28;20887;-40
2022/06/21 08:13:25;;;;;;;9.82;2.58;;;;;;;33.53;28.55;101715.50;5241844;28;20413;-40
2022/06/21 08:16:06;;;;;;;6.55;1.90;;;;;;;32.85;28.75;101721.50;5241724;28;20405;-42
2022/06/21 08:18:44;;;;;;;5.70;2.13;;;;;;;32.22;28.58;101700.00;5242032;28;20418;-41
2022/06/21 08:21:23;;;;;;;6.65;1.67;;;;;;;31.87;28.58;101693.41;5250767;28;20429;-42
2022/06/21 08:24:01;;;;;;;7.65;2.15;;;;;;;31.36;28.54;101651.56;5244617;28;20401;-41
2022/06/21 08:26:42;;;;;;;8.65;2.60;;;;;;;31.72;28.67;101704.31;5238290;28;20422;-40
2022/06/21 08:29:22;;;;;;;6.70;2.03;;;;;;;31.55;28.31;101699.09;5245259;28;20422;-40
2022/06/21 08:32:01;;;;;;;7.90;2.30;;;;;;;31.47;28.25;101702.34;5247736;28;20410;-43
2022/06/21 08:34:40;;;;;;;8.52;2.22;;;;;;;31.18;28.53;101694.56;5232387;28;20829;-40
2022/06/21 08:37:22;;;;;;;8.68;2.60;;;;;;;30.92;28.60;101709.22;5245542;28;20419;-40
2022/06/21 08:40:01;;;;;;;9.60;2.40;;;;;;;30.59;28.61;101692.09;5242296;28;20794;-40
2022/06/21 08:43:10;;;;;;;9.48;2.53;;;;;;;30.40;28.73;101688.16;5237469;28;20846;-40
2022/06/21 08:46:42;;;;;;;9.02;2.45;;;;;;;30.03;28.61;101694.38;5222919;28;20782;-40
2022/06/21 08:49:41;;;;;;;6.20;2.45;;;;;;;29.76;28.85;101673.47;5230203;28;20411;-41
2022/06/21 08:52:49;;;;;;;8.85;2.25;;;;;;;29.84;28.75;101685.78;5238942;28;20791;-40
2022/06/21 08:55:32;;;;;;;6.72;1.95;;;;;;;29.97;28.85;101687.25;5242182;28;20474;-41
2022/06/21 08:58:22;;;;;;;5.47;2.10;;;;;;;29.99;28.69;101679.63;5233959;28;20421;-41
2022/06/21 09:01:03;;;;;;;6.45;2.00;;;;;;;30.21;28.54;101672.22;5233853;28;20824;-41
2022/06/21 09:03:54;;;;;;;5.95;1.90;;;;;;;30.38;27.96;101660.31;5239415;28;20432;-41
2022/06/21 09:06:51;;;;;;;5.97;1.80;;;;;;;30.68;28.24;101668.69;5243314;28;20410;-40
2022/06/21 09:09:49;;;;;;;9.52;2.10;;;;;;;30.82;28.08;101654.63;5238135;28;20426;-41
2022/06/21 09:12:32;;;;;;;5.43;2.03;;;;;;;31.03;28.05;101653.59;5244371;28;20901;-42
2022/06/21 09:15:22;;;;;;;6.13;2.00;;;;;;;31.04;27.66;101630.69;5244931;28;20402;-44
2022/06/21 09:18:12;;;;;;;9.45;2.38;;;;;;;31.30;27.49;101647.13;5241294;28;20756;-41
2022/06/21 09:20:54;;;;;;;6.93;1.75;;;;;;;31.49;27.23;101644.75;5242549;28;20466;-41
2022/06/21 09:23:57;;;;;;;8.53;2.23;;;;;;;31.59;27.15;101637.41;5241541;28;20400;-41
2022/06/21 09:26:38;;;;;;;9.55;2.17;;;;;;;31.36;27.33;101648.81;5242674;28;20400;-40
2022/06/21 09:29:28;;;;;;;5.30;1.73;;;;;;;30.83;27.61;101648.06;5239137;28;20417;-40
2022/06/21 09:32:24;;;;;;;8.50;2.22;;;;;;;30.25;28.06;101640.63;5245543;28;20946;-42
2022/06/21 09:35:11;;;;;;;6.93;2.03;;;;;;;29.70;28.50;101636.38;5234087;28;20412;-40
2022/06/21 09:38:07;;;;;;;4.95;2.08;;;;;;;29.29;28.83;101652.25;5238650;28;20400;-42
2022/06/21 09:40:45;;;;;;;9.55;2.30;;;;;;;29.00;29.05;101642.66;5235703;28;20444;-40
2022/06/21 09:43:39;;;;;;;9.05;2.30;;;;;;;28.84;29.19;101637.00;5242013;28;21004;-41
2022/06/21 09:46:28;;;;;;;6.38;2.08;;;;;;;29.14;28.75;101641.19;5247450;28;20414;-41
2022/06/21 09:49:09;;;;;;;6.93;1.85;;;;;;;29.57;28.37;101642.19;5243044;28;20491;-40
2022/06/21 09:51:52;;;;;;;7.38;2.30;;;;;;;29.22;28.85;101640.75;5237651;28;20523;-40
2022/06/21 09:54:33;;;;;;;6.73;2.10;;;;;;;28.53;29.35;101630.34;5236686;28;20493;-40
2022/06/21 09:57:18;;;;;;;5.78;2.60;;;;;;;28.47;29.36;101640.31;5231152;28;20424;-43
2022/06/21 10:00:03;;;;;;;6.32;2.63;;;;;;;28.73;29.27;101637.94;5231122;28;20952;-41
2022/06/21 10:02:49;;;;;;;8.75;2.72;;;;;;;28.66;29.27;101638.13;5235527;28;20410;-41
2022/06/21 10:05:29;;;;;;;7.67;2.77;;;;;;;28.32;29.61;101645.50;5244756;28;25658;-42
2022/06/21 10:08:17;;;;;;;9.25;2.78;;;;;;;28.22;29.72;101642.63;5236978;28;20763;-47
2022/06/21 10:11:04;;;;;;;7.88;2.70;;;;;;;28.14;29.77;101652.00;5239807;28;20450;-41
2022/06/21 10:14:14;;;;;;;6.25;2.85;;;;;;;28.13;29.67;101634.09;5239866;28;20410;-40
2022/06/21 10:17:49;;;;;;;6.70;3.10;;;;;;;28.41;29.54;101630.47;5241264;28;20406;-41
2022/06/21 10:20:41;;;;;;;8.23;2.10;;;;;;;28.68;29.35;101613.44;5243369;28;20410;-41
2022/06/21 10:23:44;;;;;;;8.52;2.00;;;;;;;28.76;29.21;101590.41;5239764;28;20912;-41
2022/06/21 10:26:53;;;;;;;7.15;2.83;;;;;;;28.77;29.30;101617.38;5230512;28;20487;-44
2022/06/21 10:29:53;;;;;;;7.05;2.28;;;;;;;28.39;29.83;101616.25;5231798;28;20486;-44
2022/06/21 10:32:47;;;;;;;7.45;2.45;;;;;;;27.75;30.24;101607.63;5236860;28;20459;-41
2022/06/21 10:36:00;;;;;;;8.15;2.47;;;;;;;27.78;30.48;101609.88;5235908;28;20683;-40
2022/06/21 10:39:21;;;;;;;10.07;2.73;;;;;;;27.75;30.69;101619.31;5234528;28;20534;-39
2022/06/21 10:45:20;;;;;;;8.67;2.77;;;;;;;27.89;30.36;101583.75;5231360;28;20741;-44
2022/06/21 10:48:27;;;;;;;6.55;2.50;;;;;;;27.78;30.49;101566.44;5206726;28;20869;-41
2022/06/21 10:51:09;;;;;;;6.68;2.08;;;;;;;27.52;30.90;101601.28;5213865;28;20493;-41
2022/06/21 10:54:15;;;;;;;10.02;2.20;;;;;;;27.51;30.93;101588.78;5236308;28;21288;-41
2022/06/21 10:57:11;;;;;;;8.60;2.85;;;;;;;27.44;31.07;101593.56;5212316;28;20770;-40
2022/06/21 11:04:07;;;;;;;11.90;2.65;;;;;;;27.90;30.79;101588.09;5234503;28;20504;-40
2022/06/21 11:06:50;;;;;;;8.02;2.60;;;;;;;28.04;30.73;101581.25;5121413;28;20593;-41
2022/06/21 11:09:28;;;;;;;6.40;3.00;;;;;;;28.07;30.44;101556.31;5223071;28;21068;-41
2022/06/21 11:15:13;;;;;;;9.27;3.08;;;;;;;28.24;30.44;101583.44;5218151;28;20514;-40
2022/06/21 11:17:57;;;;;;;8.85;3.00;;;;;;;27.64;30.36;101486.44;5219458;28;20504;-41
2022/06/21 11:20:36;;;;;;;8.55;2.72;;;;;;;27.89;30.66;101568.25;5218664;28;20965;-41
2022/06/21 11:23:22;;;;;;;5.67;2.70;;;;;;;27.50;31.03;101575.44;5220542;28;20938;-43
2022/06/21 11:26:02;;;;;;;5.45;2.15;;;;;;;27.51;31.02;101583.38;5210562;28;20908;-42
2022/06/21 11:28:45;;;;;;;8.27;2.70;;;;;;;27.76;30.83;101588.41;5217404;28;20418;-43
2022/06/21 11:31:25;;;;;;;9.68;2.05;;;;;;;27.88;30.72;101560.38;5205466;28;20845;-41
2022/06/21 11:34:16;;;;;;;8.00;2.65;;;;;;;28.23;30.63;101585.34;5215481;28;20754;-41
2022/06/21 11:37:00;;;;;;;5.68;2.72;;;;;;;28.38;30.50;101582.03;5195711;28;20871;-41
2022/06/21 11:39:43;;;;;;;11.07;3.17;;;;;;;28.04;30.48;101495.19;5206329;28;20474;-41
2022/06/21 11:42:23;;;;;;;8.15;3.55;;;;;;;28.40;30.58;101574.47;5181622;28;20429;-42
2022/06/21 11:45:34;;;;;;;9.20;4.15;;;;;;;28.57;30.63;101568.16;5210927;28;20426;-42
2022/06/21 11:49:01;;;;;;;11.73;3.53;;;;;;;28.46;31.11;101578.06;5192129;28;20490;-41
2022/06/21 11:52:08;;;;;;;13.15;4.10;;;;;;;28.83;30.84;101572.00;5142634;28;20408;-42
2022/06/21 11:54:48;;;;;;;8.85;3.55;;;;;;;29.24;30.66;101556.19;5201025;28;20548;-40
2022/06/21 11:57:30;;;;;;;6.20;2.72;;;;;;;29.35;30.43;101556.00;5218871;28;20726;-41
2022/06/21 12:00:10;;;;;;;8.48;2.85;;;;;;;29.51;30.40;101564.28;5226620;28;20436;-39
2022/06/21 12:02:50;;;;;;;7.82;3.00;;;;;;;29.61;30.44;101562.53;5214881;28;20838;-40
2022/06/21 12:05:33;;;;;;;8.43;3.30;;;;;;;29.38;30.46;101563.63;5231448;28;22106;-40
2022/06/21 12:08:12;;;;;;;10.07;3.10;;;;;;;28.92;30.68;101560.41;5243457;28;20572;-39
2022/06/21 12:10:52;;;;;;;7.82;2.67;;;;;;;29.01;30.42;101563.53;5232435;28;20406;-40
2022/06/21 12:13:40;;;;;;;7.10;3.25;;;;;;;28.91;30.65;101564.22;5249628;28;20402;-40
2022/06/21 12:16:32;;;;;;;9.80;3.20;;;;;;;28.78;30.79;101559.19;5242751;28;20475;-40
2022/06/21 12:19:13;;;;;;;9.13;3.20;;;;;;;28.94;30.72;101557.47;5235729;28;20433;-40
2022/06/21 12:21:51;;;;;;;9.02;3.70;;;;;;;28.96;30.76;101545.25;5229865;28;20477;-41
2022/06/21 12:24:28;;;;;;;9.15;3.58;;;;;;;28.60;31.04;101551.34;5250514;28;20394;-42
2022/06/21 12:27:02;;;;;;;10.73;3.75;;;;;;;28.56;31.20;101552.94;5250085;28;20888;-40
2022/06/21 12:29:34;;;;;;;7.70;3.72;;;;;;;28.69;31.00;101558.00;5249982;28;20953;-41
2022/06/21 12:32:15;;;;;;;11.23;3.65;;;;;;;28.56;30.93;101512.19;5251055;28;20773;-41
2022/06/21 12:35:01;;;;;;;7.30;3.50;;;;;;;28.89;30.94;101551.97;5244256;28;20761;-41
2022/06/21 12:37:40;;;;;;;14.57;3.65;;;;;;;28.57;31.09;101551.88;5248597;28;20771;-39
2022/06/21 12:40:24;;;;;;;7.60;3.20;;;;;;;28.32;31.27;101545.00;5248625;28;20471;-41
2022/06/21 12:43:18;;;;;;;6.32;3.33;;;;;;;28.16;31.32;101543.16;5250738;28;20535;-40
2022/06/21 12:46:07;;;;;;;10.27;3.40;;;;;;;27.68;31.54;101539.13;5246122;28;20418;-41
2022/06/21 12:49:07;;;;;;;10.57;3.50;;;;;;;27.51;31.69;101545.38;5248484;28;20505;-41